Time;durP1;ratioP1;P1;durP2;ratioP2;P2;SDS_P1;SDS_P2;PMS_P1;PMS_P2;Temp;Humidity;BMP_temperature;BMP_pressure;BME280_temperature;BME280_humidity;BME280_pressure;Samples;Min_cycle;Max_cycle;Signal;HPM_P1;HPM_P2
2024/03/30 00:02:28;;;;;;;1138.17;999.90;;;9.50;99.90;;;;;;5074470;28;20462;-67
2024/03/30 00:04:53;;;;;;;1108.23;999.90;;;9.60;99.90;;;;;;5073785;28;20497;-66
2024/03/30 00:07:20;;;;;;;1099.27;990.67;;;9.60;99.90;;;;;;5074352;28;20454;-67
2024/03/30 00:09:47;;;;;;;1093.97;985.30;;;9.50;99.90;;;;;;5076911;28;20210;-67
2024/03/30 00:12:14;;;;;;;1088.00;979.60;;;9.50;99.90;;;;;;5079373;28;20461;-67
2024/03/30 00:14:40;;;;;;;1079.43;973.73;;;9.60;99.90;;;;;;5082571;28;20472;-67
2024/03/30 00:17:07;;;;;;;1087.40;979.63;;;9.50;99.90;;;;;;5079985;28;20481;-67
2024/03/30 00:19:35;;;;;;;1094.13;985.37;;;9.50;99.90;;;;;;5076750;28;20197;-67
2024/03/30 00:22:02;;;;;;;1098.17;986.37;;;9.50;99.90;;;;;;5073990;28;20489;-67
2024/03/30 00:24:28;;;;;;;1101.77;989.47;;;9.50;99.90;;;;;;5074155;28;20535;-67
2024/03/30 00:26:55;;;;;;;1099.43;987.63;;;9.50;99.90;;;;;;5081602;28;20482;-66
2024/03/30 00:29:20;;;;;;;1101.63;988.60;;;9.60;99.90;;;;;;5081323;28;20581;-67
2024/03/30 00:31:47;;;;;;;1090.13;978.00;;;9.60;99.90;;;;;;5077633;28;20445;-66
2024/03/30 00:34:13;;;;;;;1089.90;978.73;;;9.60;99.90;;;;;;5078977;28;20216;-67
2024/03/30 00:36:41;;;;;;;1088.40;977.40;;;9.60;99.90;;;;;;5075391;28;20482;-67
2024/03/30 00:39:07;;;;;;;1085.27;972.63;;;9.60;99.90;;;;;;5079508;28;20582;-67
2024/03/30 00:41:34;;;;;;;1077.60;966.10;;;9.70;99.90;;;;;;5081844;28;21025;-67
2024/03/30 00:44:00;;;;;;;1095.10;983.00;;;9.70;99.90;;;;;;5074082;28;20480;-67
2024/03/30 00:46:27;;;;;;;1083.27;972.07;;;9.70;99.90;;;;;;5074213;28;20533;-67
2024/03/30 00:48:53;;;;;;;1076.73;967.30;;;9.70;99.90;;;;;;5082254;28;20446;-67
2024/03/30 00:51:19;;;;;;;1089.60;980.70;;;9.70;99.90;;;;;;5081746;28;20438;-67
2024/03/30 00:53:46;;;;;;;1066.03;957.90;;;9.70;99.90;;;;;;5081500;28;20228;-66
2024/03/30 00:56:13;;;;;;;1069.77;961.07;;;9.70;99.90;;;;;;5079636;28;20481;-68
2024/03/30 00:58:39;;;;;;;1060.13;951.97;;;9.70;99.90;;;;;;5081389;28;20450;-66
2024/03/30 01:01:08;;;;;;;1065.40;955.83;;;9.60;99.90;;;;;;5078753;28;20558;-67
2024/03/30 01:03:34;;;;;;;1059.47;948.17;;;9.60;99.90;;;;;;5075346;28;20216;-66
2024/03/30 01:06:01;;;;;;;1048.83;939.80;;;9.50;99.90;;;;;;5073019;28;20456;-67
2024/03/30 01:08:27;;;;;;;1040.37;932.27;;;9.40;99.90;;;;;;5072581;28;20455;-66
2024/03/30 01:10:59;;;;;;;1046.40;934.27;;;9.30;99.90;;;;;;5072993;28;20842;-66
2024/03/30 01:13:25;;;;;;;1046.97;934.53;;;9.20;99.90;;;;;;5073057;28;20220;-65
2024/03/30 01:15:54;;;;;;;1051.07;939.20;;;9.10;99.90;;;;;;5084193;28;20552;-67
2024/03/30 01:18:21;;;;;;;1037.23;925.37;;;9.00;99.90;;;;;;5084334;28;20453;-67
2024/03/30 01:20:50;;;;;;;1050.23;931.80;;;8.90;99.90;;;;;;5073172;28;20454;-67
2024/03/30 01:23:18;;;;;;;1076.53;943.00;;;8.80;99.90;;;;;;5072398;28;20625;-67
2024/03/30 01:25:45;;;;;;;1074.40;942.57;;;8.80;99.90;;;;;;5072697;28;20454;-67
2024/03/30 01:28:13;;;;;;;1077.60;945.87;;;8.80;99.90;;;;;;5072264;28;20458;-67
2024/03/30 01:30:40;;;;;;;1100.17;946.20;;;8.80;99.90;;;;;;5080732;28;20996;-67
2024/03/30 01:33:07;;;;;;;1110.70;963.30;;;8.80;99.90;;;;;;5080874;28;20488;-67
2024/03/30 01:35:34;;;;;;;1110.10;954.80;;;8.80;99.90;;;;;;5080712;28;20484;-67
2024/03/30 01:38:00;;;;;;;1131.07;962.43;;;8.80;99.90;;;;;;5080364;28;20465;-66
2024/03/30 01:40:31;;;;;;;1124.07;951.83;;;8.80;99.90;;;;;;5080779;28;20457;-66
2024/03/30 01:42:57;;;;;;;1134.67;948.57;;;8.80;99.90;;;;;;5072460;28;20564;-65
2024/03/30 01:45:27;;;;;;;1139.33;953.00;;;8.70;99.90;;;;;;5080795;28;20682;-66
2024/03/30 01:47:53;;;;;;;1119.00;942.07;;;8.70;99.90;;;;;;5072237;28;20683;-66
2024/03/30 01:50:20;;;;;;;1110.37;942.03;;;8.70;99.90;;;;;;5071920;28;20454;-66
2024/03/30 01:52:45;;;;;;;1095.60;939.13;;;8.60;99.90;;;;;;5075133;28;20477;-67
2024/03/30 01:55:13;;;;;;;1103.37;949.23;;;8.50;99.90;;;;;;5083928;28;20471;-67
2024/03/30 01:57:39;;;;;;;1107.37;938.63;;;8.50;99.90;;;;;;5073896;28;20207;-67
2024/03/30 02:00:07;;;;;;;1116.00;912.87;;;8.50;99.90;;;;;;5080164;28;20462;-67
2024/03/30 02:02:35;;;;;;;1079.30;913.93;;;8.50;99.90;;;;;;5072053;28;20450;-67
2024/03/30 02:05:02;;;;;;;1070.30;916.00;;;8.50;99.90;;;;;;5071777;28;20462;-66
2024/03/30 02:07:28;;;;;;;1068.23;922.50;;;8.50;99.90;;;;;;5071929;28;20447;-67
2024/03/30 02:09:56;;;;;;;1065.53;909.70;;;8.50;99.90;;;;;;5071680;28;20461;-66
2024/03/30 02:12:22;;;;;;;1085.97;911.27;;;8.50;99.90;;;;;;5072097;28;20550;-66
2024/03/30 02:14:50;;;;;;;1120.77;922.80;;;8.50;99.90;;;;;;5080163;28;20458;-67
2024/03/30 02:17:15;;;;;;;1116.27;922.33;;;8.60;99.90;;;;;;5080103;28;21031;-66
2024/03/30 02:19:46;;;;;;;1112.07;924.00;;;8.60;99.90;;;;;;5082043;28;20450;-67
2024/03/30 02:22:16;;;;;;;1108.30;926.27;;;8.60;99.90;;;;;;5083668;28;20211;-66
2024/03/30 02:24:45;;;;;;;1115.10;922.00;;;8.70;99.90;;;;;;5072778;28;20478;-66
2024/03/30 02:27:10;;;;;;;1130.20;933.90;;;8.80;99.90;;;;;;5071528;28;20455;-66
2024/03/30 02:29:39;;;;;;;1122.87;921.70;;;8.80;99.90;;;;;;5081660;28;20462;-66
2024/03/30 02:32:06;;;;;;;1117.67;936.07;;;8.90;99.90;;;;;;5078259;28;20686;-67
2024/03/30 02:34:33;;;;;;;1079.63;915.10;;;8.80;99.90;;;;;;5072080;28;20997;-66
2024/03/30 02:36:59;;;;;;;1074.90;907.87;;;8.90;99.90;;;;;;5075647;28;20483;-66
2024/03/30 02:39:26;;;;;;;1065.93;888.60;;;8.90;99.90;;;;;;5074269;28;20464;-66
2024/03/30 02:41:53;;;;;;;1075.00;911.23;;;8.90;99.90;;;;;;5075366;28;20460;-66
2024/03/30 02:44:20;;;;;;;1065.33;913.07;;;8.90;99.90;;;;;;5075115;28;20505;-65
2024/03/30 02:46:47;;;;;;;1074.03;905.70;;;8.90;99.90;;;;;;5079710;28;20846;-66
2024/03/30 02:49:15;;;;;;;1134.00;943.37;;;8.90;99.90;;;;;;5071400;28;20570;-67
2024/03/30 02:51:41;;;;;;;1152.87;937.10;;;8.90;99.90;;;;;;5082105;28;20536;-66
2024/03/30 02:54:08;;;;;;;1035.37;870.60;;;8.90;99.90;;;;;;5083389;28;20476;-66
2024/03/30 02:56:34;;;;;;;1029.47;879.27;;;8.90;99.90;;;;;;5073620;28;20223;-67
2024/03/30 02:59:02;;;;;;;1037.73;906.80;;;9.00;99.90;;;;;;5070994;28;20941;-67
2024/03/30 03:01:28;;;;;;;1040.63;922.00;;;8.90;99.90;;;;;;5079856;28;20532;-67
2024/03/30 03:03:55;;;;;;;1041.73;917.93;;;9.00;99.90;;;;;;5071608;28;20474;-67
2024/03/30 03:06:21;;;;;;;1026.77;893.60;;;9.00;99.90;;;;;;5079847;28;20200;-66
2024/03/30 03:08:47;;;;;;;1041.43;886.17;;;9.00;99.90;;;;;;5071007;28;20461;-66
2024/03/30 03:11:13;;;;;;;1039.93;871.90;;;9.00;99.90;;;;;;5071644;28;20200;-67
2024/03/30 03:13:40;;;;;;;1025.90;872.40;;;8.90;99.90;;;;;;5079508;28;20846;-67
2024/03/30 03:16:07;;;;;;;1031.10;868.93;;;9.00;99.90;;;;;;5079827;28;20227;-66
2024/03/30 03:18:34;;;;;;;1035.50;874.37;;;9.00;99.90;;;;;;5071761;28;20946;-67
2024/03/30 03:21:00;;;;;;;1037.07;873.70;;;9.00;99.90;;;;;;5078290;28;20454;-67
2024/03/30 03:23:30;;;;;;;1053.27;896.07;;;9.00;99.90;;;;;;5071046;28;20996;-66
2024/03/30 03:25:55;;;;;;;1053.03;903.60;;;9.00;99.90;;;;;;5071091;28;20313;-66
2024/03/30 03:28:22;;;;;;;1044.93;900.47;;;9.00;99.90;;;;;;5070659;28;21047;-67
2024/03/30 03:30:48;;;;;;;1033.40;897.30;;;9.00;99.90;;;;;;5074288;28;20599;-67
2024/03/30 03:33:16;;;;;;;1039.53;898.30;;;8.90;99.90;;;;;;5076391;28;20478;-67
2024/03/30 03:35:42;;;;;;;1043.60;896.60;;;8.90;99.90;;;;;;5071059;28;20196;-66
2024/03/30 03:38:09;;;;;;;1032.60;890.23;;;8.90;99.90;;;;;;5070593;28;20466;-66
2024/03/30 03:40:35;;;;;;;1049.17;879.00;;;8.90;99.90;;;;;;5081391;28;20196;-66
2024/03/30 03:43:01;;;;;;;1045.57;892.57;;;8.80;99.90;;;;;;5082502;28;20498;-67
2024/03/30 03:45:27;;;;;;;1044.17;878.70;;;8.80;99.90;;;;;;5082918;28;20200;-67
2024/03/30 03:47:54;;;;;;;1042.23;883.70;;;8.80;99.90;;;;;;5074689;28;20470;-67
2024/03/30 03:50:21;;;;;;;1042.00;893.17;;;8.70;99.90;;;;;;5074447;28;20199;-66
2024/03/30 03:52:48;;;;;;;1042.63;896.00;;;8.60;99.90;;;;;;5082980;28;20528;-67
2024/03/30 03:55:14;;;;;;;1050.37;893.40;;;8.60;99.90;;;;;;5074183;28;20450;-67
2024/03/30 03:57:40;;;;;;;1054.50;888.30;;;8.50;99.90;;;;;;5082820;28;20478;-67
2024/03/30 04:00:07;;;;;;;1076.23;888.63;;;8.50;99.90;;;;;;5074165;28;20461;-67
2024/03/30 04:02:34;;;;;;;1086.40;918.13;;;8.50;99.90;;;;;;5083747;28;20458;-66
2024/03/30 04:05:00;;;;;;;1078.77;900.33;;;8.50;99.90;;;;;;5081545;28;20451;-67
2024/03/30 04:07:28;;;;;;;1099.03;888.20;;;8.40;99.90;;;;;;5082610;28;20452;-65
2024/03/30 04:09:54;;;;;;;1081.87;896.77;;;8.40;99.90;;;;;;5074032;28;20196;-66
2024/03/30 04:12:21;;;;;;;1084.00;891.20;;;8.40;99.90;;;;;;5082395;28;20829;-66
2024/03/30 04:14:46;;;;;;;1074.87;908.00;;;8.30;99.90;;;;;;5076996;28;20710;-66
2024/03/30 04:17:13;;;;;;;1072.30;892.83;;;8.30;99.90;;;;;;5079232;28;20489;-66
2024/03/30 04:19:39;;;;;;;1067.60;884.17;;;8.30;99.90;;;;;;5073592;28;20204;-67
2024/03/30 04:22:06;;;;;;;1077.80;892.40;;;8.30;99.90;;;;;;5079766;28;20460;-67
2024/03/30 04:24:33;;;;;;;1086.47;904.77;;;8.20;99.90;;;;;;5077207;28;21013;-67
2024/03/30 04:27:00;;;;;;;1091.37;909.37;;;8.20;99.90;;;;;;5086114;28;20457;-66
2024/03/30 04:29:26;;;;;;;1069.00;887.53;;;8.20;99.90;;;;;;5085486;28;20456;-65
2024/03/30 04:31:54;;;;;;;1078.30;911.57;;;8.30;99.90;;;;;;5082383;28;20474;-67
2024/03/30 04:34:20;;;;;;;1063.83;913.77;;;8.40;99.90;;;;;;5082481;28;20771;-67
2024/03/30 04:36:47;;;;;;;1066.60;919.57;;;8.40;99.90;;;;;;5075274;28;20492;-66
2024/03/30 04:39:14;;;;;;;1072.27;904.27;;;8.40;99.90;;;;;;5073621;28;20204;-66
2024/03/30 04:41:42;;;;;;;1055.47;925.57;;;8.40;99.90;;;;;;5075888;28;20454;-66
2024/03/30 04:44:08;;;;;;;1068.17;906.37;;;8.40;99.90;;;;;;5079827;28;20481;-67
2024/03/30 04:46:34;;;;;;;1085.87;927.17;;;8.40;99.90;;;;;;5081727;28;20457;-66
2024/03/30 04:49:01;;;;;;;1069.87;919.53;;;8.50;99.90;;;;;;5081443;28;20458;-67
2024/03/30 04:51:27;;;;;;;1073.23;926.80;;;8.40;99.90;;;;;;5081562;28;20207;-66
2024/03/30 04:53:53;;;;;;;1088.10;920.93;;;8.40;99.90;;;;;;5073341;28;20478;-66
2024/03/30 04:56:24;;;;;;;1074.87;919.47;;;8.50;99.90;;;;;;5073267;28;20707;-64
2024/03/30 04:58:52;;;;;;;1090.30;919.00;;;8.40;99.90;;;;;;5080700;28;21029;-66
2024/03/30 05:01:18;;;;;;;1088.17;915.30;;;8.40;99.90;;;;;;5081144;28;20446;-66
2024/03/30 05:03:45;;;;;;;1046.10;914.70;;;8.40;99.90;;;;;;5081381;28;20478;-67
2024/03/30 05:06:11;;;;;;;1037.27;922.37;;;8.50;99.90;;;;;;5072904;28;20196;-67
2024/03/30 05:08:38;;;;;;;1069.43;952.33;;;8.40;99.90;;;;;;5072533;28;20462;-67
2024/03/30 05:11:04;;;;;;;1057.17;941.13;;;8.40;99.90;;;;;;5073067;28;20817;-67
2024/03/30 05:13:31;;;;;;;1076.07;936.60;;;8.40;99.90;;;;;;5072854;28;20485;-66
2024/03/30 05:15:58;;;;;;;1065.93;936.23;;;8.40;99.90;;;;;;5072892;28;20457;-67
2024/03/30 05:18:27;;;;;;;1051.70;910.87;;;8.40;99.90;;;;;;5080575;28;20461;-67
2024/03/30 05:20:57;;;;;;;1065.33;919.80;;;8.50;99.90;;;;;;5080876;28;20827;-66
2024/03/30 05:23:27;;;;;;;1042.00;916.33;;;8.50;99.90;;;;;;5072597;28;20470;-66
2024/03/30 05:25:54;;;;;;;1060.20;925.47;;;8.50;99.90;;;;;;5081222;28;20558;-66
2024/03/30 05:28:25;;;;;;;1049.17;918.87;;;8.50;99.90;;;;;;5072308;28;20962;-67
2024/03/30 05:30:51;;;;;;;1047.50;931.47;;;8.50;99.90;;;;;;5075957;28;20464;-67
2024/03/30 05:33:21;;;;;;;1052.97;936.87;;;8.50;99.90;;;;;;5084115;28;20631;-67
2024/03/30 05:35:48;;;;;;;1043.80;930.20;;;8.60;99.90;;;;;;5076266;28;20459;-67
2024/03/30 05:38:15;;;;;;;1044.27;929.17;;;8.50;99.90;;;;;;5077280;28;20486;-67
2024/03/30 05:40:42;;;;;;;1046.37;931.60;;;8.60;99.90;;;;;;5074637;28;20450;-67
2024/03/30 05:43:09;;;;;;;1055.20;941.27;;;8.60;99.90;;;;;;5084340;28;20885;-66
2024/03/30 05:45:36;;;;;;;1029.80;917.10;;;8.60;99.90;;;;;;5073936;28;20959;-66
2024/03/30 05:48:05;;;;;;;1030.87;918.37;;;8.60;99.90;;;;;;5071219;28;20818;-66
2024/03/30 05:50:32;;;;;;;1038.77;924.33;;;8.60;99.90;;;;;;5072083;28;20485;-67
2024/03/30 05:52:59;;;;;;;1014.40;897.03;;;8.70;99.90;;;;;;5079855;28;21069;-64
2024/03/30 05:55:26;;;;;;;1042.80;930.20;;;8.70;99.90;;;;;;5072072;28;20484;-67
2024/03/30 05:57:54;;;;;;;1034.37;921.40;;;8.70;99.90;;;;;;5072046;28;20486;-66
2024/03/30 06:00:21;;;;;;;1049.97;937.20;;;8.80;99.90;;;;;;5071755;28;20498;-67
2024/03/30 06:02:47;;;;;;;1030.97;918.10;;;8.80;99.90;;;;;;5071311;28;20470;-67
2024/03/30 06:05:15;;;;;;;1039.47;928.17;;;8.80;99.90;;;;;;5071767;28;20523;-66
2024/03/30 06:07:42;;;;;;;1032.83;920.77;;;8.90;99.90;;;;;;5071885;28;20458;-67
2024/03/30 06:10:10;;;;;;;1010.90;895.37;;;8.90;99.90;;;;;;5077418;28;20976;-67
2024/03/30 06:12:37;;;;;;;1012.13;895.87;;;9.00;99.90;;;;;;5073872;28;20450;-67
2024/03/30 06:15:05;;;;;;;1012.83;900.93;;;9.00;99.90;;;;;;5071374;28;20545;-67
2024/03/30 06:17:34;;;;;;;1013.50;893.90;;;9.00;99.90;;;;;;5072540;28;20492;-67
2024/03/30 06:20:01;;;;;;;1006.97;896.10;;;9.10;99.90;;;;;;5078434;28;20808;-67
2024/03/30 06:22:27;;;;;;;1021.43;910.30;;;9.20;99.90;;;;;;5071558;28;20458;-67
2024/03/30 06:24:55;;;;;;;1003.13;890.67;;;9.20;99.90;;;;;;5070178;28;20458;-67
2024/03/30 06:27:21;;;;;;;1008.97;898.13;;;9.30;99.90;;;;;;5079268;28;20457;-67
2024/03/30 06:29:48;;;;;;;1019.23;907.67;;;9.40;99.90;;;;;;5078595;28;20461;-67
2024/03/30 06:32:14;;;;;;;1006.27;891.23;;;9.40;99.90;;;;;;5077545;28;20199;-66
2024/03/30 06:34:41;;;;;;;1002.20;883.10;;;9.40;99.90;;;;;;5080627;28;21029;-66
2024/03/30 06:37:06;;;;;;;1008.77;888.67;;;9.50;99.90;;;;;;5070579;28;20223;-67
2024/03/30 06:45:14;;;;;;;1002.57;894.10;;;9.60;99.90;;;;;;5028372;28;20862;-67
2024/03/30 06:47:41;;;;;;;995.70;887.80;;;9.70;99.90;;;;;;5028599;28;20444;-66
2024/03/30 06:50:07;;;;;;;978.40;870.40;;;9.70;99.90;;;;;;5055052;28;20824;-66
2024/03/30 06:52:34;;;;;;;990.37;880.87;;;9.80;99.90;;;;;;5070734;28;20449;-66
2024/03/30 06:55:00;;;;;;;993.73;885.57;;;9.90;99.90;;;;;;5071044;28;20810;-67
2024/03/30 06:57:28;;;;;;;977.17;871.10;;;9.90;99.90;;;;;;5071080;28;20489;-67
2024/03/30 06:59:54;;;;;;;976.07;870.07;;;9.90;99.90;;;;;;5070518;28;20204;-67
2024/03/30 07:02:20;;;;;;;991.03;885.17;;;9.90;99.90;;;;;;5071151;28;20839;-67
2024/03/30 07:04:46;;;;;;;991.50;885.00;;;10.00;99.90;;;;;;5078902;28;20232;-67
2024/03/30 07:07:13;;;;;;;962.13;857.10;;;10.00;99.90;;;;;;5070923;28;20453;-66
2024/03/30 07:09:39;;;;;;;951.53;847.23;;;10.00;99.90;;;;;;5079185;28;20451;-67
2024/03/30 07:12:06;;;;;;;933.13;830.00;;;10.00;99.90;;;;;;5079294;28;20497;-66
2024/03/30 07:14:33;;;;;;;908.37;807.17;;;10.00;99.90;;;;;;5080131;28;20219;-67
2024/03/30 07:17:01;;;;;;;908.20;795.07;;;10.10;99.90;;;;;;5073136;28;20478;-66
2024/03/30 07:19:27;;;;;;;933.53;830.17;;;10.10;99.90;;;;;;5073124;28;20886;-66
2024/03/30 07:21:53;;;;;;;985.50;879.20;;;10.10;99.90;;;;;;5076682;28;20535;-67
2024/03/30 07:24:19;;;;;;;932.50;831.33;;;10.20;99.90;;;;;;5084281;28;20923;-64
2024/03/30 07:26:46;;;;;;;899.30;803.13;;;10.20;99.90;;;;;;5074326;28;20450;-67
2024/03/30 07:29:12;;;;;;;885.60;791.00;;;10.30;99.90;;;;;;5081319;28;20202;-66
2024/03/30 07:31:40;;;;;;;892.10;797.20;;;10.40;99.90;;;;;;5073455;28;20457;-67
2024/03/30 07:34:06;;;;;;;913.43;817.87;;;10.40;99.90;;;;;;5075304;28;20224;-67
2024/03/30 07:36:33;;;;;;;910.43;815.33;;;10.60;99.90;;;;;;5083271;28;20460;-67
2024/03/30 07:38:58;;;;;;;905.77;811.20;;;10.60;99.90;;;;;;5079417;28;20204;-67
2024/03/30 07:41:25;;;;;;;893.07;799.47;;;10.70;99.90;;;;;;5078618;28;20972;-67
2024/03/30 07:43:51;;;;;;;873.90;782.67;;;10.80;99.90;;;;;;5083257;28;20224;-67
2024/03/30 07:46:18;;;;;;;873.23;785.03;;;10.90;99.90;;;;;;5074980;28;20833;-67
2024/03/30 07:48:45;;;;;;;865.70;780.90;;;10.90;99.90;;;;;;5074159;28;20201;-66
2024/03/30 07:51:12;;;;;;;857.90;776.70;;;11.00;99.90;;;;;;5081242;28;20456;-66
2024/03/30 07:53:38;;;;;;;833.50;754.17;;;11.00;99.90;;;;;;5084904;28;21083;-67
2024/03/30 07:56:05;;;;;;;838.97;759.17;;;11.00;99.90;;;;;;5074997;28;20546;-67
2024/03/30 07:58:30;;;;;;;833.40;755.67;;;11.20;99.90;;;;;;5074878;28;20216;-67
2024/03/30 08:00:57;;;;;;;851.80;774.50;;;11.30;99.90;;;;;;5086451;28;20453;-67
2024/03/30 08:03:23;;;;;;;839.57;764.43;;;11.50;99.90;;;;;;5078214;28;20216;-67
2024/03/30 08:05:58;;;;;;;854.70;783.10;;;11.70;99.90;;;;;;5074703;28;20465;-67
2024/03/30 08:08:24;;;;;;;856.97;790.07;;;11.80;99.90;;;;;;5074229;28;20214;-67
2024/03/30 08:10:51;;;;;;;879.40;817.50;;;12.00;99.90;;;;;;5077880;28;20458;-67
2024/03/30 08:13:17;;;;;;;882.33;825.33;;;12.00;99.90;;;;;;5086626;28;20776;-67
2024/03/30 08:15:45;;;;;;;862.93;811.57;;;12.10;99.90;;;;;;5077962;28;20462;-67
2024/03/30 08:18:11;;;;;;;864.70;814.30;;;12.20;99.90;;;;;;5079648;28;20607;-67
2024/03/30 08:20:38;;;;;;;868.20;818.40;;;12.40;99.90;;;;;;5082840;28;20458;-66
2024/03/30 08:23:06;;;;;;;865.00;816.27;;;12.40;99.90;;;;;;5074580;28;20553;-67
2024/03/30 08:25:34;;;;;;;845.97;800.27;;;12.60;99.90;;;;;;5073872;28;20464;-67
2024/03/30 08:28:00;;;;;;;836.30;793.13;;;12.80;99.90;;;;;;5073874;28;20455;-67
2024/03/30 08:30:26;;;;;;;841.43;798.07;;;13.00;99.90;;;;;;5082166;28;20469;-66
2024/03/30 08:32:52;;;;;;;724.97;693.17;;;13.20;99.90;;;;;;5074010;28;21004;-67
2024/03/30 08:35:19;;;;;;;676.83;648.60;;;13.50;99.90;;;;;;5089929;28;20460;-66
2024/03/30 08:37:45;;;;;;;525.57;505.83;;;13.60;99.90;;;;;;5094260;28;21023;-67
2024/03/30 08:40:13;;;;;;;329.97;318.47;;;13.70;99.90;;;;;;5094102;28;20457;-67
2024/03/30 08:42:39;;;;;;;257.77;248.43;;;13.70;99.90;;;;;;5083865;28;20290;-67
2024/03/30 08:45:06;;;;;;;242.67;234.47;;;13.70;99.90;;;;;;5074430;28;20562;-67
2024/03/30 08:47:32;;;;;;;203.07;195.77;;;13.70;99.90;;;;;;5073909;28;20327;-67
2024/03/30 08:50:00;;;;;;;167.40;161.33;;;13.80;99.90;;;;;;5077831;28;20464;-66
2024/03/30 08:52:26;;;;;;;171.90;165.60;;;13.90;99.90;;;;;;5077526;28;20529;-67
2024/03/30 08:54:52;;;;;;;201.97;194.80;;;13.90;99.90;;;;;;5082432;28;20901;-67
2024/03/30 08:57:19;;;;;;;200.10;193.20;;;14.10;99.90;;;;;;5080886;28;20483;-66
2024/03/30 08:59:49;;;;;;;233.13;225.20;;;14.20;99.90;;;;;;5076897;28;20477;-67
2024/03/30 09:02:17;;;;;;;179.00;172.73;;;14.40;99.90;;;;;;5079335;28;20831;-65
2024/03/30 09:04:44;;;;;;;158.87;153.23;;;14.30;99.90;;;;;;5073529;28;20474;-67
2024/03/30 09:07:10;;;;;;;152.97;147.47;;;14.30;99.90;;;;;;5081722;28;20827;-67
2024/03/30 09:09:37;;;;;;;115.37;109.33;;;14.30;99.90;;;;;;5072962;28;20462;-66
2024/03/30 09:12:03;;;;;;;114.70;109.80;;;14.30;99.90;;;;;;5073119;28;20676;-66
2024/03/30 09:14:31;;;;;;;135.93;130.93;;;14.30;99.90;;;;;;5073149;28;20852;-67
2024/03/30 09:16:58;;;;;;;110.33;106.13;;;14.50;99.90;;;;;;5073118;28;20481;-67
2024/03/30 09:19:25;;;;;;;78.87;75.27;;;14.80;99.90;;;;;;5073170;28;20465;-67
2024/03/30 09:21:51;;;;;;;54.20;51.50;;;15.10;99.80;;;;;;5073276;28;20458;-67
2024/03/30 09:24:18;;;;;;;31.20;28.47;;;15.20;99.80;;;;;;5072718;28;20474;-66
2024/03/30 09:26:44;;;;;;;30.57;28.30;;;15.20;99.80;;;;;;5072602;28;20450;-66
2024/03/30 09:29:11;;;;;;;26.83;25.13;;;15.40;99.80;;;;;;5072997;28;20971;-68
2024/03/30 09:31:38;;;;;;;19.43;17.67;;;15.30;99.80;;;;;;5073130;28;20223;-65
2024/03/30 09:34:05;;;;;;;14.17;12.70;;;15.40;99.80;;;;;;5078095;28;20477;-67
2024/03/30 09:36:30;;;;;;;18.17;9.10;;;15.40;97.70;;;;;;5083938;28;20452;-67
2024/03/30 09:38:57;;;;;;;26.73;6.77;;;15.50;93.30;;;;;;5080136;28;20482;-66
2024/03/30 09:41:24;;;;;;;9.00;5.13;;;15.70;93.30;;;;;;5072964;28;20458;-66
2024/03/30 09:43:53;;;;;;;16.87;4.77;;;15.80;93.40;;;;;;5072623;28;20482;-67
2024/03/30 09:46:19;;;;;;;10.77;4.10;;;15.80;93.30;;;;;;5072776;28;20832;-67
2024/03/30 09:48:48;;;;;;;21.57;5.80;;;15.90;89.20;;;;;;5072017;28;20450;-66
2024/03/30 09:51:16;;;;;;;19.17;4.80;;;16.10;82.90;;;;;;5072432;28;20458;-66
2024/03/30 09:53:45;;;;;;;14.73;4.50;;;16.30;82.70;;;;;;5082647;28;20565;-66
2024/03/30 09:56:11;;;;;;;21.83;5.17;;;16.60;83.00;;;;;;5077879;28;20451;-67
2024/03/30 09:58:39;;;;;;;17.17;5.10;;;16.70;83.00;;;;;;5072053;28;20478;-66
2024/03/30 10:01:06;;;;;;;16.17;3.60;;;16.80;82.80;;;;;;5080933;28;20457;-67
2024/03/30 10:03:32;;;;;;;14.20;4.70;;;16.90;75.40;;;;;;5072175;28;20527;-66
2024/03/30 10:06:05;;;;;;;28.17;3.97;;;17.00;67.40;;;;;;5076105;28;20453;-66
2024/03/30 10:08:34;;;;;;;22.23;4.70;;;17.10;67.50;;;;;;5074295;28;20446;-67
2024/03/30 10:11:08;;;;;;;38.00;3.83;;;17.20;67.60;;;;;;5079268;28;20512;-67
2024/03/30 10:13:37;;;;;;;16.60;3.40;;;17.20;67.50;;;;;;5071855;28;20486;-67
2024/03/30 10:16:04;;;;;;;11.40;3.17;;;17.30;67.60;;;;;;5071825;28;20457;-67
2024/03/30 10:18:31;;;;;;;26.27;4.10;;;17.40;67.60;;;;;;5079342;28;20478;-65
2024/03/30 10:20:59;;;;;;;22.23;4.30;;;17.40;59.60;;;;;;5080089;28;20550;-66
2024/03/30 10:23:28;;;;;;;21.10;3.63;;;17.30;59.40;;;;;;5071571;28;20880;-66
2024/03/30 10:25:55;;;;;;;21.57;3.57;;;17.20;59.30;;;;;;5075486;28;20532;-66
2024/03/30 10:28:22;;;;;;;18.57;3.93;;;16.90;59.00;;;;;;5075327;28;20901;-67
2024/03/30 10:30:48;;;;;;;27.33;5.50;;;16.80;58.90;;;;;;5079644;28;20508;-66
2024/03/30 10:33:18;;;;;;;22.70;4.20;;;16.70;58.80;;;;;;5070295;28;20470;-66
2024/03/30 10:35:45;;;;;;;23.23;3.93;;;16.50;59.70;;;;;;5071456;28;20450;-66
2024/03/30 10:38:12;;;;;;;14.63;3.57;;;16.50;60.00;;;;;;5070506;28;21045;-67
2024/03/30 10:40:39;;;;;;;26.97;4.30;;;16.50;50.00;;;;;;5079518;28;20453;-66
2024/03/30 10:43:06;;;;;;;16.77;5.77;;;16.50;50.00;;;;;;5070791;28;20482;-66
2024/03/30 10:45:33;;;;;;;32.27;5.83;;;16.40;56.80;;;;;;5071086;28;20825;-67
2024/03/30 10:48:00;;;;;;;26.40;4.47;;;16.40;58.60;;;;;;5079619;28;20536;-66
2024/03/30 10:50:26;;;;;;;23.93;5.20;;;16.30;59.20;;;;;;5084593;28;20837;-66
2024/03/30 10:52:53;;;;;;;37.20;5.20;;;16.30;49.80;;;;;;5076280;28;20473;-66
2024/03/30 10:55:19;;;;;;;37.72;7.60;;;16.30;49.80;;;;;;5073283;28;20453;-66
2024/03/30 10:57:47;;;;;;;24.50;6.00;;;16.40;41.80;;;;;;5075744;28;20231;-66
2024/03/30 11:00:14;;;;;;;28.73;7.83;;;16.50;33.60;;;;;;5079209;28;20445;-63
2024/03/30 11:02:41;;;;;;;35.03;5.57;;;16.60;32.10;;;;;;5084663;28;20492;-65
2024/03/30 11:05:07;;;;;;;33.27;7.57;;;16.70;32.20;;;;;;5083385;28;20495;-66
2024/03/30 11:07:37;;;;;;;34.73;7.23;;;16.70;32.20;;;;;;5083020;28;20953;-66
2024/03/30 11:10:03;;;;;;;41.17;5.90;;;16.80;26.40;;;;;;5079528;28;20455;-67
2024/03/30 11:12:32;;;;;;;43.37;9.37;;;16.80;17.40;;;;;;5077577;28;20462;-67
2024/03/30 11:14:59;;;;;;;41.63;6.70;;;16.80;18.80;;;;;;5078749;28;20453;-67
2024/03/30 11:17:31;;;;;;;38.40;8.70;;;16.70;17.50;;;;;;5085819;28;20477;-66
2024/03/30 11:20:06;;;;;;;38.57;7.73;;;16.60;22.20;;;;;;5074131;28;20454;-67
2024/03/30 11:22:44;;;;;;;32.07;7.00;;;16.50;23.40;;;;;;5082787;28;20752;-67
2024/03/30 11:25:13;;;;;;;33.07;5.50;;;16.60;24.60;;;;;;5073927;28;20464;-65
2024/03/30 11:27:49;;;;;;;38.43;5.80;;;16.60;19.80;;;;;;5074245;28;20449;-67
2024/03/30 11:30:28;;;;;;;34.30;7.27;;;16.60;17.50;;;;;;5074008;28;20464;-67
2024/03/30 11:33:03;;;;;;;37.43;7.10;;;16.50;17.20;;;;;;5078250;28;20480;-67
2024/03/30 11:35:35;;;;;;;41.00;8.87;;;16.40;24.00;;;;;;5077668;28;20464;-67
2024/03/30 11:38:06;;;;;;;26.77;5.20;;;16.30;17.10;;;;;;5073805;28;20477;-67
2024/03/30 11:40:36;;;;;;;24.73;6.17;;;16.40;17.10;;;;;;5074769;28;20458;-67
2024/03/30 11:43:15;;;;;;;28.37;5.03;;;16.40;17.10;;;;;;5080105;28;20481;-67
2024/03/30 11:45:43;;;;;;;22.33;5.67;;;16.30;17.10;;;;;;5080922;28;20454;-67
2024/03/30 11:48:11;;;;;;;22.43;5.97;;;16.30;17.00;;;;;;5080810;28;20953;-65
2024/03/30 11:50:37;;;;;;;40.03;6.30;;;16.20;17.00;;;;;;5074693;28;20903;-67
2024/03/30 11:53:15;;;;;;;33.73;6.17;;;16.20;19.60;;;;;;5080713;28;20481;-66
2024/03/30 11:55:43;;;;;;;39.43;6.70;;;16.10;17.00;;;;;;5076023;28;20503;-67
2024/03/30 11:58:18;;;;;;;27.63;6.50;;;16.10;16.90;;;;;;5085461;28;20510;-66
2024/03/30 12:00:51;;;;;;;53.70;7.37;;;16.20;17.00;;;;;;5081956;28;20468;-67
2024/03/30 12:03:17;;;;;;;25.80;7.57;;;16.10;16.90;;;;;;5073712;28;20483;-67
2024/03/30 12:05:52;;;;;;;28.20;5.07;;;16.10;21.10;;;;;;5076563;28;20461;-66
2024/03/30 12:08:19;;;;;;;19.90;7.03;;;16.20;17.00;;;;;;5085121;28;20972;-67
2024/03/30 12:10:47;;;;;;;27.50;4.87;;;16.30;17.00;;;;;;5074702;28;20461;-66
2024/03/30 12:13:14;;;;;;;25.43;6.40;;;16.30;17.00;;;;;;5062446;28;20963;-66
2024/03/30 12:15:40;;;;;;;24.70;4.33;;;16.30;17.00;;;;;;5076305;28;20804;-67
2024/03/30 12:18:10;;;;;;;26.63;4.00;;;16.30;17.00;;;;;;5080221;28;20930;-66
2024/03/30 12:20:36;;;;;;;17.50;3.70;;;16.30;17.10;;;;;;5073161;28;20451;-64
2024/03/30 12:23:05;;;;;;;37.60;7.50;;;16.30;17.00;;;;;;5074037;28;20915;-67